Time;durP1;ratioP1;P1;durP2;ratioP2;P2;SDS_P1;SDS_P2;PMS_P1;PMS_P2;Temp;Humidity;BMP_temperature;BMP_pressure;BME280_temperature;BME280_humidity;BME280_pressure;Samples;Min_cycle;Max_cycle;Signal;HPM_P1;HPM_P2
2021/08/31 00:00:40;;;;;;;;;;;;;;;;;;2102489;28;1040;-70
2021/08/31 00:01:40;;;;;;;;;;;;;;;;;;2101720;28;1037;-70
2021/08/31 00:02:41;;;;;;;;;;;;;;;;;;2102780;28;1081;-70
2021/08/31 00:03:41;;;;;;;;;;;;;;;;;;2100405;28;4247;-70
2021/08/31 00:04:42;;;;;;;;;;;;;;;;;;2102243;28;1243;-70
2021/08/31 00:05:42;;;;;;;;;;;;;;;;;;2101263;28;2867;-70
2021/08/31 00:06:44;;;;;;;;;;;;;;;;;;2102298;28;1065;-70
2021/08/31 00:07:45;;;;;;;;;;;;;;;;;;2102662;28;1096;-70
2021/08/31 00:08:46;;;;;;;;;;;;;;;;;;2102711;28;1355;-70
2021/08/31 00:09:47;;;;;;;;;;;;;;;;;;2102533;28;1971;-70
2021/08/31 00:10:48;;;;;;;;;;;;;;;;;;2102553;28;2569;-70
2021/08/31 00:11:48;;;;;;;;;;;;;;;;;;2101254;28;4739;-70
2021/08/31 00:12:49;;;;;;;;;;;;;;;;;;2103132;28;1265;-70
2021/08/31 00:13:49;;;;;;;;;;;;;;;;;;2101451;28;1051;-70
2021/08/31 00:14:51;;;;;;;;;;;;;;;;;;2103015;28;2602;-70
2021/08/31 00:15:51;;;;;;;;;;;;;;;;;;2102712;28;2415;-70
2021/08/31 00:16:52;;;;;;;;;;;;;;;;;;2102579;28;1017;-70
2021/08/31 00:17:52;;;;;;;;;;;;;;;;;;2103286;28;1180;-70
2021/08/31 00:18:54;;;;;;;;;;;;;;;;;;2100792;28;1878;-70
2021/08/31 00:19:54;;;;;;;;;;;;;;;;;;2102457;28;1092;-70
2021/08/31 00:20:55;;;;;;;;;;;;;;;;;;2102623;28;4627;-70
2021/08/31 00:21:55;;;;;;;;;;;;;;;;;;2102618;28;4667;-70
2021/08/31 00:22:56;;;;;;;;;;;;;;;;;;2102906;28;4237;-70
2021/08/31 00:23:56;;;;;;;;;;;;;;;;;;2102239;28;2033;-70
2021/08/31 00:24:57;;;;;;;;;;;;;;;;;;2102002;28;4706;-71
2021/08/31 00:25:57;;;;;;;;;;;;;;;;;;2103838;28;1172;-70
2021/08/31 00:26:58;;;;;;;;;;;;;;;;;;2103386;28;1178;-70
2021/08/31 00:27:58;;;;;;;;;;;;;;;;;;2104745;28;1141;-71
2021/08/31 00:29:00;;;;;;;;;;;;;;;;;;2104749;28;1084;-70
2021/08/31 00:30:00;;;;;;;;;;;;;;;;;;2103678;28;4446;-70
2021/08/31 00:31:01;;;;;;;;;;;;;;;;;;2103128;28;3521;-70
2021/08/31 00:32:01;;;;;;;;;;;;;;;;;;2104991;28;1105;-70
2021/08/31 00:33:02;;;;;;;;;;;;;;;;;;2102454;28;1225;-70
2021/08/31 00:34:02;;;;;;;;;;;;;;;;;;2102842;28;5086;-70
2021/08/31 00:35:03;;;;;;;;;;;;;;;;;;2104614;28;4107;-70
2021/08/31 00:36:04;;;;;;;;;;;;;;;;;;2104035;28;4548;-70
2021/08/31 00:37:05;;;;;;;;;;;;;;;;;;2104791;28;3193;-70
2021/08/31 00:38:05;;;;;;;;;;;;;;;;;;2104152;28;2396;-70
2021/08/31 00:39:06;;;;;;;;;;;;;;;;;;2103667;28;4863;-70
2021/08/31 00:40:06;;;;;;;;;;;;;;;;;;2103996;28;4352;-70
2021/08/31 00:41:07;;;;;;;;;;;;;;;;;;2104918;28;1084;-70
2021/08/31 00:42:07;;;;;;;;;;;;;;;;;;2105575;28;2288;-70
2021/08/31 00:43:08;;;;;;;;;;;;;;;;;;2105489;28;1286;-70
2021/08/31 00:44:08;;;;;;;;;;;;;;;;;;2103299;28;4341;-70
2021/08/31 00:45:09;;;;;;;;;;;;;;;;;;2105119;28;2137;-70
2021/08/31 00:46:09;;;;;;;;;;;;;;;;;;2105149;28;993;-70
2021/08/31 00:47:11;;;;;;;;;;;;;;;;;;2105878;28;1017;-70
2021/08/31 00:48:11;;;;;;;;;;;;;;;;;;2106788;28;1044;-70
2021/08/31 00:49:12;;;;;;;;;;;;;;;;;;2106219;28;1044;-71
2021/08/31 00:50:13;;;;;;;;;;;;;;;;;;2103889;28;4281;-70
2021/08/31 00:51:13;;;;;;;;;;;;;;;;;;2105741;28;1178;-70
2021/08/31 00:52:14;;;;;;;;;;;;;;;;;;2099581;28;4079;-70
2021/08/31 00:53:14;;;;;;;;;;;;;;;;;;2098238;28;1270;-71
2021/08/31 00:54:15;;;;;;;;;;;;;;;;;;2098122;28;1080;-70
2021/08/31 00:55:15;;;;;;;;;;;;;;;;;;2099527;28;2164;-70
2021/08/31 00:56:17;;;;;;;;;;;;;;;;;;2098320;28;2080;-70
2021/08/31 00:57:17;;;;;;;;;;;;;;;;;;2099984;28;2782;-70
2021/08/31 00:58:18;;;;;;;;;;;;;;;;;;2099780;28;1017;-70
2021/08/31 00:59:18;;;;;;;;;;;;;;;;;;2099532;28;1335;-71
2021/08/31 01:00:20;;;;;;;;;;;;;;;;;;2100403;28;1151;-70
2021/08/31 01:01:20;;;;;;;;;;;;;;;;;;2099241;28;1106;-70
2021/08/31 01:02:21;;;;;;;;;;;;;;;;;;2098900;28;4255;-70
2021/08/31 01:03:22;;;;;;;;;;;;;;;;;;2098798;28;1252;-70
2021/08/31 01:04:23;;;;;;;;;;;;;;;;;;2098915;28;4358;-70
2021/08/31 01:05:23;;;;;;;;;;;;;;;;;;2098974;28;2027;-70
2021/08/31 01:06:24;;;;;;;;;;;;;;;;;;2098193;28;1349;-70
2021/08/31 01:07:25;;;;;;;;;;;;;;;;;;2100765;28;1287;-70
2021/08/31 01:08:26;;;;;;;;;;;;;;;;;;2100042;28;1260;-71
2021/08/31 01:09:26;;;;;;;;;;;;;;;;;;2100688;28;1983;-70
2021/08/31 01:10:27;;;;;;;;;;;;;;;;;;2099358;28;1921;-70
2021/08/31 01:11:27;;;;;;;;;;;;;;;;;;2100071;28;1037;-70
2021/08/31 01:12:28;;;;;;;;;;;;;;;;;;2099827;28;4360;-71
2021/08/31 01:13:28;;;;;;;;;;;;;;;;;;2099691;28;1298;-70
2021/08/31 01:14:29;;;;;;;;;;;;;;;;;;2100372;28;4308;-70
2021/08/31 01:15:30;;;;;;;;;;;;;;;;;;2096650;28;4072;-70
2021/08/31 01:16:32;;;;;;;;;;;;;;;;;;2100063;28;989;-70
2021/08/31 01:17:32;;;;;;;;;;;;;;;;;;2101215;28;1142;-71
2021/08/31 01:18:34;;;;;;;;;;;;;;;;;;2098497;28;1056;-70
2021/08/31 01:19:34;;;;;;;;;;;;;;;;;;2101297;28;1173;-70
2021/08/31 01:20:35;;;;;;;;;;;;;;;;;;2101281;28;894;-70
2021/08/31 01:21:35;;;;;;;;;;;;;;;;;;2101413;28;1068;-70
2021/08/31 01:22:36;;;;;;;;;;;;;;;;;;2100667;27;4323;-70
2021/08/31 01:23:36;;;;;;;;;;;;;;;;;;2100880;28;1282;-70
2021/08/31 01:24:37;;;;;;;;;;;;;;;;;;2101835;28;1041;-70
2021/08/31 01:25:38;;;;;;;;;;;;;;;;;;2101126;27;3798;-70
2021/08/31 01:26:39;;;;;;;;;;;;;;;;;;2101205;28;4162;-70
2021/08/31 01:27:39;;;;;;;;;;;;;;;;;;2101881;28;1134;-70
2021/08/31 01:28:40;;;;;;;;;;;;;;;;;;2102486;28;1064;-70
2021/08/31 01:29:40;;;;;;;;;;;;;;;;;;2102113;28;1988;-70
2021/08/31 01:30:41;;;;;;;;;;;;;;;;;;2102524;28;1042;-70
2021/08/31 01:31:41;;;;;;;;;;;;;;;;;;2099817;28;4039;-70
2021/08/31 01:32:42;;;;;;;;;;;;;;;;;;2102425;28;4403;-70
2021/08/31 01:33:43;;;;;;;;;;;;;;;;;;2101165;28;1267;-70
2021/08/31 01:34:43;;;;;;;;;;;;;;;;;;2102195;28;1042;-70
2021/08/31 01:35:45;;;;;;;;;;;;;;;;;;2102465;27;3837;-71
2021/08/31 01:36:45;;;;;;;;;;;;;;;;;;2102393;28;1033;-70
2021/08/31 01:37:46;;;;;;;;;;;;;;;;;;2101349;28;4383;-70
2021/08/31 01:38:46;;;;;;;;;;;;;;;;;;2103439;28;1309;-71
2021/08/31 01:39:47;;;;;;;;;;;;;;;;;;2102841;28;1250;-70
2021/08/31 01:40:47;;;;;;;;;;;;;;;;;;2103208;27;1057;-70
2021/08/31 01:41:48;;;;;;;;;;;;;;;;;;2102695;28;1088;-71
2021/08/31 01:42:48;;;;;;;;;;;;;;;;;;2102531;28;1115;-70
2021/08/31 01:43:49;;;;;;;;;;;;;;;;;;2102273;28;1354;-70
2021/08/31 01:44:51;;;;;;;;;;;;;;;;;;2103093;28;2359;-70
2021/08/31 01:45:51;;;;;;;;;;;;;;;;;;2102258;28;4413;-70
2021/08/31 01:46:52;;;;;;;;;;;;;;;;;;2101391;28;1121;-70
2021/08/31 01:47:52;;;;;;;;;;;;;;;;;;2102108;28;3777;-70
2021/08/31 01:48:53;;;;;;;;;;;;;;;;;;2101631;28;1147;-70
2021/08/31 01:49:53;;;;;;;;;;;;;;;;;;2097878;28;2001;-70
2021/08/31 01:50:54;;;;;;;;;;;;;;;;;;2102486;28;1481;-71
2021/08/31 01:51:54;;;;;;;;;;;;;;;;;;2102743;28;1291;-70
2021/08/31 01:52:55;;;;;;;;;;;;;;;;;;2102263;28;4099;-70
2021/08/31 01:53:56;;;;;;;;;;;;;;;;;;2102165;28;1053;-70
2021/08/31 01:54:57;;;;;;;;;;;;;;;;;;2100980;27;3812;-70
2021/08/31 01:55:57;;;;;;;;;;;;;;;;;;2102802;28;1064;-70
2021/08/31 01:56:58;;;;;;;;;;;;;;;;;;2103615;28;1046;-70
2021/08/31 01:57:58;;;;;;;;;;;;;;;;;;2104115;28;1059;-70
2021/08/31 01:58:59;;;;;;;;;;;;;;;;;;2104741;28;1053;-70
2021/08/31 01:59:59;;;;;;;;;;;;;;;;;;2103516;28;4270;-70
2021/08/31 02:01:00;;;;;;;;;;;;;;;;;;2103601;28;1186;-70
2021/08/31 02:02:00;;;;;;;;;;;;;;;;;;2104090;28;1029;-70
2021/08/31 02:03:02;;;;;;;;;;;;;;;;;;2104280;28;1376;-70
2021/08/31 02:04:04;;;;;;;;;;;;;;;;;;2103240;28;1327;-70
2021/08/31 02:05:05;;;;;;;;;;;;;;;;;;2103405;28;3867;-70
2021/08/31 02:06:06;;;;;;;;;;;;;;;;;;2104516;28;1093;-70
2021/08/31 02:07:06;;;;;;;;;;;;;;;;;;2104694;28;1114;-70
2021/08/31 02:08:07;;;;;;;;;;;;;;;;;;2105844;28;1088;-70
2021/08/31 02:09:08;;;;;;;;;;;;;;;;;;2103315;28;4066;-70
2021/08/31 02:10:08;;;;;;;;;;;;;;;;;;2104336;28;1981;-70
2021/08/31 02:11:09;;;;;;;;;;;;;;;;;;2101063;28;4308;-70
2021/08/31 02:12:09;;;;;;;;;;;;;;;;;;2103594;28;3982;-70
2021/08/31 02:13:11;;;;;;;;;;;;;;;;;;2103696;28;1588;-70
2021/08/31 02:14:11;;;;;;;;;;;;;;;;;;2102940;28;2118;-70
2021/08/31 02:15:12;;;;;;;;;;;;;;;;;;2100335;28;4302;-70
2021/08/31 02:16:12;;;;;;;;;;;;;;;;;;2097990;28;1148;-70
2021/08/31 02:17:14;;;;;;;;;;;;;;;;;;2098176;28;1080;-70
2021/08/31 02:18:15;;;;;;;;;;;;;;;;;;2098636;28;1095;-71
2021/08/31 02:19:16;;;;;;;;;;;;;;;;;;2097925;28;1210;-70
2021/08/31 02:20:16;;;;;;;;;;;;;;;;;;2098444;28;1088;-70
2021/08/31 02:21:17;;;;;;;;;;;;;;;;;;2098210;27;1014;-70
2021/08/31 02:22:17;;;;;;;;;;;;;;;;;;2098008;28;1198;-71
2021/08/31 02:23:18;;;;;;;;;;;;;;;;;;2097636;28;1322;-70
2021/08/31 02:24:18;;;;;;;;;;;;;;;;;;2098772;28;1207;-70
2021/08/31 02:25:19;;;;;;;;;;;;;;;;;;2096966;28;4179;-70
2021/08/31 02:26:19;;;;;;;;;;;;;;;;;;2098782;28;2000;-70
2021/08/31 02:27:20;;;;;;;;;;;;;;;;;;2098428;28;3959;-71
2021/08/31 02:28:21;;;;;;;;;;;;;;;;;;2099121;28;4575;-70
2021/08/31 02:29:24;;;;;;;;;;;;;;;;;;2099537;28;1173;-70
2021/08/31 02:30:25;;;;;;;;;;;;;;;;;;2099400;28;4154;-70
2021/08/31 02:31:25;;;;;;;;;;;;;;;;;;2099273;28;1018;-70
2021/08/31 02:32:26;;;;;;;;;;;;;;;;;;2099602;28;1033;-70
2021/08/31 02:33:26;;;;;;;;;;;;;;;;;;2098507;28;1376;-70
2021/08/31 02:34:27;;;;;;;;;;;;;;;;;;2100331;28;1435;-70
2021/08/31 02:35:28;;;;;;;;;;;;;;;;;;2099232;28;4247;-70
2021/08/31 02:36:29;;;;;;;;;;;;;;;;;;2099226;28;1069;-70
2021/08/31 02:37:30;;;;;;;;;;;;;;;;;;2099841;28;1033;-70
2021/08/31 02:38:31;;;;;;;;;;;;;;;;;;2099921;28;1000;-70
2021/08/31 02:39:31;;;;;;;;;;;;;;;;;;2099818;28;1040;-70
2021/08/31 02:40:32;;;;;;;;;;;;;;;;;;2099796;28;1099;-70
2021/08/31 02:41:32;;;;;;;;;;;;;;;;;;2099615;28;1386;-70
2021/08/31 02:42:33;;;;;;;;;;;;;;;;;;2099747;28;1052;-70
2021/08/31 02:43:34;;;;;;;;;;;;;;;;;;2099592;28;1232;-70
2021/08/31 02:44:34;;;;;;;;;;;;;;;;;;2100507;28;1084;-70
2021/08/31 02:45:35;;;;;;;;;;;;;;;;;;2099671;28;4726;-70
2021/08/31 02:46:35;;;;;;;;;;;;;;;;;;2099397;28;1139;-70
2021/08/31 02:47:36;;;;;;;;;;;;;;;;;;2100657;28;1133;-70
2021/08/31 02:48:37;;;;;;;;;;;;;;;;;;2100456;28;1041;-70
2021/08/31 02:49:38;;;;;;;;;;;;;;;;;;2100477;28;1109;-70
2021/08/31 02:50:38;;;;;;;;;;;;;;;;;;2100490;28;1902;-71
2021/08/31 02:51:39;;;;;;;;;;;;;;;;;;2100914;28;1167;-70
2021/08/31 02:52:39;;;;;;;;;;;;;;;;;;2101051;28;1121;-70
2021/08/31 02:53:40;;;;;;;;;;;;;;;;;;2100762;28;1254;-70
2021/08/31 02:54:40;;;;;;;;;;;;;;;;;;2100674;28;1127;-70
2021/08/31 02:55:41;;;;;;;;;;;;;;;;;;2101065;28;4009;-70
2021/08/31 02:56:42;;;;;;;;;;;;;;;;;;2100762;28;1001;-70
2021/08/31 02:57:43;;;;;;;;;;;;;;;;;;2102002;28;1054;-70
2021/08/31 02:58:43;;;;;;;;;;;;;;;;;;2101906;28;1038;-70
2021/08/31 02:59:44;;;;;;;;;;;;;;;;;;2101936;28;1173;-70
2021/08/31 03:00:53;;;;;;;;;;;;;;;;;;2101889;28;1030;-70
2021/08/31 03:02:07;;;;;;;;;;;;;;;;;;2102081;28;1328;-70
2021/08/31 03:03:08;;;;;;;;;;;;;;;;;;2102263;28;1293;-70
2021/08/31 03:04:08;;;;;;;;;;;;;;;;;;2101306;28;1126;-70
2021/08/31 03:05:09;;;;;;;;;;;;;;;;;;2101823;28;3997;-70
2021/08/31 03:06:09;;;;;;;;;;;;;;;;;;2102063;28;1188;-70
2021/08/31 03:07:10;;;;;;;;;;;;;;;;;;2102697;28;1154;-70
2021/08/31 03:08:10;;;;;;;;;;;;;;;;;;2102998;28;1053;-70
2021/08/31 03:09:11;;;;;;;;;;;;;;;;;;2102834;28;1541;-70
2021/08/31 03:10:11;;;;;;;;;;;;;;;;;;2103473;28;1980;-71
2021/08/31 03:11:12;;;;;;;;;;;;;;;;;;2102152;28;1184;-70
2021/08/31 03:12:13;;;;;;;;;;;;;;;;;;2103745;28;1204;-70
2021/08/31 03:13:14;;;;;;;;;;;;;;;;;;2102968;28;1290;-70
2021/08/31 03:14:19;;;;;;;;;;;;;;;;;;2103978;28;1066;-70
2021/08/31 03:15:20;;;;;;;;;;;;;;;;;;2103644;28;4184;-70
2021/08/31 03:16:20;;;;;;;;;;;;;;;;;;2103768;28;1259;-70
2021/08/31 03:17:21;;;;;;;;;;;;;;;;;;2104158;28;1046;-70
2021/08/31 03:18:21;;;;;;;;;;;;;;;;;;2104068;28;1080;-70
2021/08/31 03:19:24;;;;;;;;;;;;;;;;;;2104523;28;1045;-70
2021/08/31 03:20:26;;;;;;;;;;;;;;;;;;2104818;28;1044;-70
2021/08/31 03:21:26;;;;;;;;;;;;;;;;;;2104905;28;1088;-70
2021/08/31 03:22:27;;;;;;;;;;;;;;;;;;2105252;28;4197;-70
2021/08/31 03:23:27;;;;;;;;;;;;;;;;;;2102753;28;4322;-70
2021/08/31 03:24:28;;;;;;;;;;;;;;;;;;2103519;28;4325;-70
2021/08/31 03:25:28;;;;;;;;;;;;;;;;;;2103864;28;2241;-70
2021/08/31 03:26:29;;;;;;;;;;;;;;;;;;2099894;28;1001;-70
2021/08/31 03:27:30;;;;;;;;;;;;;;;;;;2098208;28;1030;-70
2021/08/31 03:28:31;;;;;;;;;;;;;;;;;;2098178;28;1030;-70
2021/08/31 03:29:31;;;;;;;;;;;;;;;;;;2097695;28;1124;-70
2021/08/31 03:30:32;;;;;;;;;;;;;;;;;;2098115;28;1989;-70
2021/08/31 03:31:32;;;;;;;;;;;;;;;;;;2098136;28;1162;-70
2021/08/31 03:32:33;;;;;;;;;;;;;;;;;;2098598;28;1079;-70
2021/08/31 03:33:33;;;;;;;;;;;;;;;;;;2097556;28;1310;-70
2021/08/31 03:34:34;;;;;;;;;;;;;;;;;;2098300;28;1052;-70
2021/08/31 03:35:34;;;;;;;;;;;;;;;;;;2098770;28;4183;-70
2021/08/31 03:36:35;;;;;;;;;;;;;;;;;;2098250;28;1073;-70
2021/08/31 03:37:36;;;;;;;;;;;;;;;;;;2099230;28;1087;-70
2021/08/31 03:38:37;;;;;;;;;;;;;;;;;;2099594;28;997;-70
2021/08/31 03:39:38;;;;;;;;;;;;;;;;;;2099071;28;1136;-71
2021/08/31 03:40:38;;;;;;;;;;;;;;;;;;2098954;28;3888;-71
2021/08/31 03:42:39;;;;;;;;;;;;;;;;;;2121661;27;1903;-72
2021/08/31 03:43:40;;;;;;;;;;;;;;;;;;2114491;27;1266;-72
2021/08/31 03:44:41;;;;;;;;;;;;;;;;;;2115361;27;1057;-72
2021/08/31 03:45:41;;;;;;;;;;;;;;;;;;2114154;27;4295;-73
2021/08/31 03:46:42;;;;;;;;;;;;;;;;;;2114782;27;1045;-73
2021/08/31 03:47:42;;;;;;;;;;;;;;;;;;2115753;27;1017;-70
2021/08/31 03:48:43;;;;;;;;;;;;;;;;;;2116061;27;1085;-70
2021/08/31 03:49:43;;;;;;;;;;;;;;;;;;2116220;27;1216;-70
2021/08/31 03:50:44;;;;;;;;;;;;;;;;;;2115549;27;2072;-70
2021/08/31 03:51:44;;;;;;;;;;;;;;;;;;2115363;27;1092;-70
2021/08/31 03:52:46;;;;;;;;;;;;;;;;;;2116311;27;1093;-70
2021/08/31 03:53:46;;;;;;;;;;;;;;;;;;2115812;27;1163;-70
2021/08/31 03:54:47;;;;;;;;;;;;;;;;;;2115795;27;1037;-70
2021/08/31 03:55:47;;;;;;;;;;;;;;;;;;2115523;27;4296;-70
2021/08/31 03:56:48;;;;;;;;;;;;;;;;;;2113180;27;1734;-70
2021/08/31 03:57:48;;;;;;;;;;;;;;;;;;2115639;27;2009;-70
2021/08/31 03:58:49;;;;;;;;;;;;;;;;;;2116556;27;1093;-70
2021/08/31 03:59:49;;;;;;;;;;;;;;;;;;2116656;27;1028;-70
2021/08/31 04:00:50;;;;;;;;;;;;;;;;;;2116216;27;4328;-70
2021/08/31 04:01:51;;;;;;;;;;;;;;;;;;2115829;27;1910;-70
2021/08/31 04:02:52;;;;;;;;;;;;;;;;;;2116574;27;1258;-70
2021/08/31 04:03:52;;;;;;;;;;;;;;;;;;2115079;27;1017;-70
2021/08/31 04:04:53;;;;;;;;;;;;;;;;;;2116200;27;4183;-70
2021/08/31 04:05:53;;;;;;;;;;;;;;;;;;2115795;27;1962;-70
2021/08/31 04:06:57;;;;;;;;;;;;;;;;;;2116457;27;1102;-70
2021/08/31 04:07:57;;;;;;;;;;;;;;;;;;2116946;27;1271;-70
2021/08/31 04:08:58;;;;;;;;;;;;;;;;;;2116972;27;1386;-70
2021/08/31 04:09:58;;;;;;;;;;;;;;;;;;2117266;27;1085;-70
2021/08/31 04:10:59;;;;;;;;;;;;;;;;;;2116479;27;3944;-70
2021/08/31 04:11:59;;;;;;;;;;;;;;;;;;2116240;27;1986;-70
2021/08/31 04:13:00;;;;;;;;;;;;;;;;;;2117664;27;1231;-71
2021/08/31 04:14:01;;;;;;;;;;;;;;;;;;2116060;27;1104;-70
2021/08/31 04:15:02;;;;;;;;;;;;;;;;;;2117179;27;3998;-70
2021/08/31 04:16:03;;;;;;;;;;;;;;;;;;2110800;27;1201;-70
2021/08/31 04:17:03;;;;;;;;;;;;;;;;;;2117816;27;1299;-70
2021/08/31 04:18:04;;;;;;;;;;;;;;;;;;2117426;27;1065;-70
2021/08/31 04:19:04;;;;;;;;;;;;;;;;;;2113968;27;1096;-70
2021/08/31 04:20:05;;;;;;;;;;;;;;;;;;2117876;27;1088;-70
2021/08/31 04:21:06;;;;;;;;;;;;;;;;;;2116523;27;3878;-70
2021/08/31 04:22:06;;;;;;;;;;;;;;;;;;2118060;27;1901;-70
2021/08/31 04:23:07;;;;;;;;;;;;;;;;;;2116904;27;1286;-70
2021/08/31 04:24:08;;;;;;;;;;;;;;;;;;2116910;27;1030;-70
2021/08/31 04:25:08;;;;;;;;;;;;;;;;;;2118013;27;2358;-70
2021/08/31 04:26:10;;;;;;;;;;;;;;;;;;2117848;27;1001;-70
2021/08/31 04:27:10;;;;;;;;;;;;;;;;;;2118754;27;1067;-70
2021/08/31 04:28:11;;;;;;;;;;;;;;;;;;2118570;27;2088;-70
2021/08/31 04:29:11;;;;;;;;;;;;;;;;;;2114929;27;1287;-70
2021/08/31 04:30:12;;;;;;;;;;;;;;;;;;2118893;27;1135;-70
2021/08/31 04:31:13;;;;;;;;;;;;;;;;;;2118176;27;3945;-70
2021/08/31 04:32:13;;;;;;;;;;;;;;;;;;2119181;27;4682;-70
2021/08/31 04:33:14;;;;;;;;;;;;;;;;;;2116801;27;1319;-70
2021/08/31 04:34:14;;;;;;;;;;;;;;;;;;2119253;27;1101;-70
2021/08/31 04:35:16;;;;;;;;;;;;;;;;;;2118797;27;3974;-70
2021/08/31 04:36:17;;;;;;;;;;;;;;;;;;2113191;27;3832;-70
2021/08/31 04:37:17;;;;;;;;;;;;;;;;;;2119504;27;1278;-70
2021/08/31 04:38:18;;;;;;;;;;;;;;;;;;2120429;27;1133;-70
2021/08/31 04:39:18;;;;;;;;;;;;;;;;;;2117869;27;1018;-70
2021/08/31 04:40:19;;;;;;;;;;;;;;;;;;2117336;27;1083;-71
2021/08/31 04:41:19;;;;;;;;;;;;;;;;;;2117635;27;1043;-70
2021/08/31 04:42:20;;;;;;;;;;;;;;;;;;2113314;27;1906;-70
2021/08/31 04:43:22;;;;;;;;;;;;;;;;;;2113346;27;1335;-70
2021/08/31 04:44:23;;;;;;;;;;;;;;;;;;2113917;27;1228;-70
2021/08/31 04:45:24;;;;;;;;;;;;;;;;;;2112277;27;4433;-70
2021/08/31 04:46:25;;;;;;;;;;;;;;;;;;2112472;27;1161;-70
2021/08/31 04:47:25;;;;;;;;;;;;;;;;;;2112798;27;1178;-70
2021/08/31 04:48:26;;;;;;;;;;;;;;;;;;2112253;27;2274;-70
2021/08/31 04:49:27;;;;;;;;;;;;;;;;;;2111702;27;1966;-70
2021/08/31 04:50:28;;;;;;;;;;;;;;;;;;2114326;27;1259;-70
2021/08/31 04:51:28;;;;;;;;;;;;;;;;;;2113235;27;2080;-70
2021/08/31 04:52:29;;;;;;;;;;;;;;;;;;2113631;27;1337;-70
2021/08/31 04:53:30;;;;;;;;;;;;;;;;;;2107550;27;4104;-70
2021/08/31 04:54:30;;;;;;;;;;;;;;;;;;2108311;27;1605;-70
2021/08/31 04:55:31;;;;;;;;;;;;;;;;;;2108307;27;2073;-70
2021/08/31 04:56:31;;;;;;;;;;;;;;;;;;2109378;27;1037;-70
2021/08/31 04:57:32;;;;;;;;;;;;;;;;;;2109168;27;1048;-70
2021/08/31 04:58:33;;;;;;;;;;;;;;;;;;2109576;27;1103;-70
2021/08/31 04:59:34;;;;;;;;;;;;;;;;;;2109869;27;1100;-70
2021/08/31 05:00:35;;;;;;;;;;;;;;;;;;2110652;27;1045;-70
2021/08/31 05:01:35;;;;;;;;;;;;;;;;;;2108568;27;1045;-70
2021/08/31 05:02:36;;;;;;;;;;;;;;;;;;2109952;27;1984;-71
2021/08/31 05:03:36;;;;;;;;;;;;;;;;;;2108363;27;4244;-70
2021/08/31 05:04:37;;;;;;;;;;;;;;;;;;2109022;27;1013;-70
2021/08/31 05:05:39;;;;;;;;;;;;;;;;;;2109198;27;4254;-70
2021/08/31 05:06:39;;;;;;;;;;;;;;;;;;2108781;27;1121;-70
2021/08/31 05:07:40;;;;;;;;;;;;;;;;;;2109829;27;1165;-70
2021/08/31 05:08:40;;;;;;;;;;;;;;;;;;2109677;27;1284;-70
2021/08/31 05:09:41;;;;;;;;;;;;;;;;;;2109027;27;1037;-70
2021/08/31 05:10:41;;;;;;;;;;;;;;;;;;2109845;27;1044;-70
2021/08/31 05:11:42;;;;;;;;;;;;;;;;;;2109635;27;1073;-70
2021/08/31 05:12:42;;;;;;;;;;;;;;;;;;2110250;27;1190;-70
2021/08/31 05:13:43;;;;;;;;;;;;;;;;;;2109173;27;4353;-70
2021/08/31 05:14:43;;;;;;;;;;;;;;;;;;2109452;27;4283;-70
2021/08/31 05:15:45;;;;;;;;;;;;;;;;;;2110415;27;2466;-70
2021/08/31 05:16:45;;;;;;;;;;;;;;;;;;2109790;27;1029;-70
2021/08/31 05:17:46;;;;;;;;;;;;;;;;;;2110374;27;1104;-70
2021/08/31 05:18:46;;;;;;;;;;;;;;;;;;2110513;27;984;-70
2021/08/31 05:19:47;;;;;;;;;;;;;;;;;;2110868;27;1091;-70
2021/08/31 05:20:47;;;;;;;;;;;;;;;;;;2110444;27;1149;-70
2021/08/31 05:21:50;;;;;;;;;;;;;;;;;;2110407;27;1902;-70
2021/08/31 05:22:50;;;;;;;;;;;;;;;;;;2110619;27;1207;-70
2021/08/31 05:23:51;;;;;;;;;;;;;;;;;;2109620;27;4323;-70
2021/08/31 05:24:51;;;;;;;;;;;;;;;;;;2109925;27;4266;-70
2021/08/31 05:25:52;;;;;;;;;;;;;;;;;;2111048;27;2040;-70
2021/08/31 05:26:52;;;;;;;;;;;;;;;;;;2110982;27;2073;-70
2021/08/31 05:27:53;;;;;;;;;;;;;;;;;;2111425;27;2315;-70
2021/08/31 05:28:53;;;;;;;;;;;;;;;;;;2106568;27;1224;-70
2021/08/31 05:29:54;;;;;;;;;;;;;;;;;;2111698;27;923;-70
2021/08/31 05:30:55;;;;;;;;;;;;;;;;;;2111019;27;1107;-70
2021/08/31 05:31:56;;;;;;;;;;;;;;;;;;2111275;27;3937;-70
2021/08/31 05:32:57;;;;;;;;;;;;;;;;;;2105603;27;3464;-70
2021/08/31 05:33:57;;;;;;;;;;;;;;;;;;2110378;27;1469;-71
2021/08/31 05:34:58;;;;;;;;;;;;;;;;;;2110975;27;4236;-71
2021/08/31 05:35:58;;;;;;;;;;;;;;;;;;2112235;27;1284;-70
2021/08/31 05:36:59;;;;;;;;;;;;;;;;;;2111629;27;1172;-70
2021/08/31 05:38:00;;;;;;;;;;;;;;;;;;2111810;27;1125;-71
2021/08/31 05:39:04;;;;;;;;;;;;;;;;;;2111989;27;1105;-70
2021/08/31 05:40:05;;;;;;;;;;;;;;;;;;2112052;27;1427;-70
2021/08/31 05:41:06;;;;;;;;;;;;;;;;;;2111456;27;1073;-70
2021/08/31 05:42:07;;;;;;;;;;;;;;;;;;2113118;27;1981;-70
2021/08/31 05:43:07;;;;;;;;;;;;;;;;;;2108399;27;1360;-70
2021/08/31 05:44:08;;;;;;;;;;;;;;;;;;2112512;27;1068;-70
2021/08/31 05:45:09;;;;;;;;;;;;;;;;;;2111534;27;4251;-70
2021/08/31 05:46:09;;;;;;;;;;;;;;;;;;2111200;27;3918;-70
2021/08/31 05:47:10;;;;;;;;;;;;;;;;;;2111314;27;4306;-70
2021/08/31 05:48:10;;;;;;;;;;;;;;;;;;2112195;27;4313;-70
2021/08/31 05:49:11;;;;;;;;;;;;;;;;;;2113297;27;1047;-70
2021/08/31 05:50:11;;;;;;;;;;;;;;;;;;2113769;27;1095;-70
2021/08/31 05:51:13;;;;;;;;;;;;;;;;;;2113741;27;1052;-70
2021/08/31 05:52:13;;;;;;;;;;;;;;;;;;2113618;27;4262;-70
2021/08/31 05:53:14;;;;;;;;;;;;;;;;;;2112299;27;4306;-70
2021/08/31 05:54:14;;;;;;;;;;;;;;;;;;2113723;27;1123;-70
2021/08/31 05:55:15;;;;;;;;;;;;;;;;;;2113361;27;4406;-70
2021/08/31 05:56:15;;;;;;;;;;;;;;;;;;2113344;27;1156;-70
2021/08/31 05:57:16;;;;;;;;;;;;;;;;;;2108862;27;1211;-70
2021/08/31 05:58:17;;;;;;;;;;;;;;;;;;2106914;27;1024;-70
2021/08/31 05:59:18;;;;;;;;;;;;;;;;;;2106711;27;1118;-70
2021/08/31 06:00:18;;;;;;;;;;;;;;;;;;2107142;27;1267;-70
2021/08/31 06:01:19;;;;;;;;;;;;;;;;;;2106365;27;1199;-70
2021/08/31 06:02:19;;;;;;;;;;;;;;;;;;2106247;27;4309;-70
2021/08/31 06:03:21;;;;;;;;;;;;;;;;;;2105083;27;4255;-70
2021/08/31 06:04:22;;;;;;;;;;;;;;;;;;2107022;27;2402;-70
2021/08/31 06:05:23;;;;;;;;;;;;;;;;;;2106725;27;1954;-70
2021/08/31 06:06:23;;;;;;;;;;;;;;;;;;2106943;27;2001;-70
2021/08/31 06:07:26;;;;;;;;;;;;;;;;;;2107441;27;4259;-70
2021/08/31 06:08:29;;;;;;;;;;;;;;;;;;2107265;27;2227;-70
2021/08/31 06:09:31;;;;;;;;;;;;;;;;;;2105623;27;1141;-70
2021/08/31 06:10:31;;;;;;;;;;;;;;;;;;2107679;27;4112;-70
2021/08/31 06:11:36;;;;;;;;;;;;;;;;;;2106802;27;4444;-70
2021/08/31 06:12:36;;;;;;;;;;;;;;;;;;2107242;27;4059;-70
2021/08/31 06:13:37;;;;;;;;;;;;;;;;;;2107608;27;1264;-70
2021/08/31 06:14:37;;;;;;;;;;;;;;;;;;2107915;27;1278;-70
2021/08/31 06:15:38;;;;;;;;;;;;;;;;;;2108674;27;3732;-70
2021/08/31 06:16:38;;;;;;;;;;;;;;;;;;2107756;27;1089;-70
2021/08/31 06:17:40;;;;;;;;;;;;;;;;;;2109448;27;1013;-70
2021/08/31 06:18:41;;;;;;;;;;;;;;;;;;2108727;27;1276;-71
2021/08/31 06:19:41;;;;;;;;;;;;;;;;;;2105417;27;1196;-70
2021/08/31 06:20:42;;;;;;;;;;;;;;;;;;2102631;27;3798;-70
2021/08/31 06:21:42;;;;;;;;;;;;;;;;;;2108226;27;3499;-70
2021/08/31 06:22:46;;;;;;;;;;;;;;;;;;2108503;27;1996;-70
2021/08/31 06:23:46;;;;;;;;;;;;;;;;;;2108466;27;1258;-70
2021/08/31 06:24:47;;;;;;;;;;;;;;;;;;2108389;27;1600;-71
2021/08/31 06:25:48;;;;;;;;;;;;;;;;;;2108631;27;4298;-70
2021/08/31 06:26:49;;;;;;;;;;;;;;;;;;2108376;27;1096;-70
2021/08/31 06:27:50;;;;;;;;;;;;;;;;;;2109031;27;1026;-70
2021/08/31 06:28:50;;;;;;;;;;;;;;;;;;2108721;27;1006;-70
2021/08/31 06:29:52;;;;;;;;;;;;;;;;;;2108180;27;4484;-70
2021/08/31 06:30:53;;;;;;;;;;;;;;;;;;2108939;27;1099;-71
2021/08/31 06:31:53;;;;;;;;;;;;;;;;;;2108472;27;4307;-70
2021/08/31 06:32:54;;;;;;;;;;;;;;;;;;2108439;27;2065;-70
2021/08/31 06:33:54;;;;;;;;;;;;;;;;;;2108048;27;1243;-70
2021/08/31 06:34:55;;;;;;;;;;;;;;;;;;2101466;27;4312;-70
2021/08/31 06:35:55;;;;;;;;;;;;;;;;;;2107111;27;1040;-70
2021/08/31 06:36:56;;;;;;;;;;;;;;;;;;2109094;27;1013;-70
2021/08/31 06:37:57;;;;;;;;;;;;;;;;;;2108933;27;1053;-70
2021/08/31 06:38:58;;;;;;;;;;;;;;;;;;2109700;27;1085;-71
2021/08/31 06:39:59;;;;;;;;;;;;;;;;;;2107061;27;2358;-70
2021/08/31 06:40:59;;;;;;;;;;;;;;;;;;2109807;27;1239;-70
2021/08/31 06:42:00;;;;;;;;;;;;;;;;;;2109988;27;1038;-70
2021/08/31 06:43:00;;;;;;;;;;;;;;;;;;2108132;27;1913;-70
2021/08/31 06:44:01;;;;;;;;;;;;;;;;;;2109244;27;1072;-71
2021/08/31 06:45:01;;;;;;;;;;;;;;;;;;2109541;27;4427;-70
2021/08/31 06:46:02;;;;;;;;;;;;;;;;;;2109706;27;2132;-70
2021/08/31 06:47:05;;;;;;;;;;;;;;;;;;2110320;27;1042;-71
2021/08/31 06:48:06;;;;;;;;;;;;;;;;;;2110254;27;1025;-70
2021/08/31 06:49:06;;;;;;;;;;;;;;;;;;2110383;27;1116;-70
2021/08/31 06:50:13;;;;;;;;;;;;;;;;;;2110313;27;1946;-70
2021/08/31 06:51:14;;;;;;;;;;;;;;;;;;2109892;27;1113;-71
2021/08/31 06:52:15;;;;;;;;;;;;;;;;;;2110666;27;1029;-70
2021/08/31 06:53:16;;;;;;;;;;;;;;;;;;2109759;27;1246;-70
2021/08/31 06:54:16;;;;;;;;;;;;;;;;;;2110494;27;1064;-70
2021/08/31 06:55:17;;;;;;;;;;;;;;;;;;2109954;27;4803;-70
2021/08/31 06:56:20;;;;;;;;;;;;;;;;;;2110051;27;1093;-71
2021/08/31 06:57:21;;;;;;;;;;;;;;;;;;2110332;27;4050;-70
2021/08/31 06:58:22;;;;;;;;;;;;;;;;;;2110468;27;1084;-70
2021/08/31 06:59:22;;;;;;;;;;;;;;;;;;2111236;27;1145;-70
2021/08/31 07:00:23;;;;;;;;;;;;;;;;;;2110563;27;4293;-71
2021/08/31 07:01:24;;;;;;;;;;;;;;;;;;2110130;27;3611;-70
2021/08/31 07:02:25;;;;;;;;;;;;;;;;;;2111011;27;1913;-70
2021/08/31 07:03:26;;;;;;;;;;;;;;;;;;2110085;27;1368;-70